sensor_id;sensor_type;location;lat;lon;timestamp;temperature;humidity
45803;DHT22;31504;51.716;9.184;2023-06-14T00:02:02;23.40;53.50
45803;DHT22;31504;51.716;9.184;2023-06-14T00:05:03;23.40;53.50
45803;DHT22;31504;51.716;9.184;2023-06-14T00:08:04;23.40;53.40
45803;DHT22;31504;51.716;9.184;2023-06-14T00:11:07;23.40;53.40
45803;DHT22;31504;51.716;9.184;2023-06-14T00:14:08;23.40;53.40
45803;DHT22;31504;51.716;9.184;2023-06-14T00:17:08;23.40;53.30
45803;DHT22;31504;51.716;9.184;2023-06-14T00:20:09;23.40;54.00
45803;DHT22;31504;51.716;9.184;2023-06-14T00:23:10;23.40;53.40
45803;DHT22;31504;51.716;9.184;2023-06-14T00:26:10;23.40;53.30
45803;DHT22;31504;51.716;9.184;2023-06-14T00:29:11;23.40;53.40
45803;DHT22;31504;51.716;9.184;2023-06-14T00:32:11;23.40;53.30
45803;DHT22;31504;51.716;9.184;2023-06-14T00:35:12;23.40;53.40
45803;DHT22;31504;51.716;9.184;2023-06-14T00:38:12;23.40;53.40
45803;DHT22;31504;51.716;9.184;2023-06-14T00:41:13;23.40;53.30
45803;DHT22;31504;51.716;9.184;2023-06-14T00:44:13;23.40;53.40
45803;DHT22;31504;51.716;9.184;2023-06-14T00:47:15;23.40;53.40
45803;DHT22;31504;51.716;9.184;2023-06-14T00:50:16;23.40;53.40
45803;DHT22;31504;51.716;9.184;2023-06-14T00:53:16;23.40;53.40
45803;DHT22;31504;51.716;9.184;2023-06-14T00:56:17;23.40;53.40
45803;DHT22;31504;51.716;9.184;2023-06-14T00:59:21;23.40;53.30
45803;DHT22;31504;51.716;9.184;2023-06-14T01:02:21;23.40;53.40
45803;DHT22;31504;51.716;9.184;2023-06-14T01:05:22;23.40;53.40
45803;DHT22;31504;51.716;9.184;2023-06-14T01:08:24;23.40;53.40
45803;DHT22;31504;51.716;9.184;2023-06-14T01:11:29;23.40;53.40
45803;DHT22;31504;51.716;9.184;2023-06-14T01:14:32;23.40;53.40
45803;DHT22;31504;51.716;9.184;2023-06-14T01:17:33;23.40;53.30
45803;DHT22;31504;51.716;9.184;2023-06-14T01:20:34;23.40;53.30
45803;DHT22;31504;51.716;9.184;2023-06-14T01:23:37;23.40;53.30
45803;DHT22;31504;51.716;9.184;2023-06-14T01:26:38;23.40;53.30
45803;DHT22;31504;51.716;9.184;2023-06-14T01:29:39;23.40;53.20
45803;DHT22;31504;51.716;9.184;2023-06-14T01:32:46;23.40;53.30
45803;DHT22;31504;51.716;9.184;2023-06-14T01:35:47;23.40;53.30
45803;DHT22;31504;51.716;9.184;2023-06-14T01:38:48;23.40;53.30
45803;DHT22;31504;51.716;9.184;2023-06-14T01:41:50;23.40;53.30
45803;DHT22;31504;51.716;9.184;2023-06-14T01:44:51;23.40;53.20
45803;DHT22;31504;51.716;9.184;2023-06-14T01:47:53;23.40;53.30
45803;DHT22;31504;51.716;9.184;2023-06-14T01:50:54;23.40;53.30
45803;DHT22;31504;51.716;9.184;2023-06-14T01:53:54;23.40;53.30
45803;DHT22;31504;51.716;9.184;2023-06-14T01:56:55;23.40;53.30
45803;DHT22;31504;51.716;9.184;2023-06-14T01:59:56;23.40;53.30
45803;DHT22;31504;51.716;9.184;2023-06-14T02:02:57;23.40;53.20
45803;DHT22;31504;51.716;9.184;2023-06-14T02:05:57;23.40;53.20
45803;DHT22;31504;51.716;9.184;2023-06-14T02:08:57;23.40;53.20
45803;DHT22;31504;51.716;9.184;2023-06-14T02:11:58;23.40;53.30
45803;DHT22;31504;51.716;9.184;2023-06-14T02:14:58;23.40;53.30
45803;DHT22;31504;51.716;9.184;2023-06-14T02:17:59;23.40;53.20
45803;DHT22;31504;51.716;9.184;2023-06-14T02:21:00;23.40;53.20
45803;DHT22;31504;51.716;9.184;2023-06-14T02:24:00;23.40;53.20
45803;DHT22;31504;51.716;9.184;2023-06-14T02:27:02;23.40;50.40
45803;DHT22;31504;51.716;9.184;2023-06-14T02:30:02;23.60;48.60
45803;DHT22;31504;51.716;9.184;2023-06-14T02:33:03;23.40;46.40
45803;DHT22;31504;51.716;9.184;2023-06-14T02:36:04;23.10;45.30
45803;DHT22;31504;51.716;9.184;2023-06-14T02:39:05;23.00;44.70
45803;DHT22;31504;51.716;9.184;2023-06-14T02:42:05;22.80;44.50
45803;DHT22;31504;51.716;9.184;2023-06-14T02:45:06;22.80;44.50
45803;DHT22;31504;51.716;9.184;2023-06-14T02:48:07;22.70;44.40
45803;DHT22;31504;51.716;9.184;2023-06-14T02:51:07;22.60;44.40
45803;DHT22;31504;51.716;9.184;2023-06-14T02:54:09;22.50;44.40
45803;DHT22;31504;51.716;9.184;2023-06-14T02:57:10;22.40;44.40
45803;DHT22;31504;51.716;9.184;2023-06-14T03:00:11;22.40;44.40
45803;DHT22;31504;51.716;9.184;2023-06-14T03:03:13;22.40;44.40
45803;DHT22;31504;51.716;9.184;2023-06-14T03:06:18;22.90;51.40
45803;DHT22;31504;51.716;9.184;2023-06-14T03:09:19;23.10;51.30
45803;DHT22;31504;51.716;9.184;2023-06-14T03:12:19;23.10;51.50
45803;DHT22;31504;51.716;9.184;2023-06-14T03:15:21;23.20;51.80
45803;DHT22;31504;51.716;9.184;2023-06-14T03:18:23;23.20;51.80
45803;DHT22;31504;51.716;9.184;2023-06-14T03:21:25;23.20;51.80
45803;DHT22;31504;51.716;9.184;2023-06-14T03:24:26;23.20;52.00
45803;DHT22;31504;51.716;9.184;2023-06-14T03:27:27;23.20;51.80
45803;DHT22;31504;51.716;9.184;2023-06-14T03:30:29;23.20;52.30
45803;DHT22;31504;51.716;9.184;2023-06-14T03:33:30;23.20;52.20
45803;DHT22;31504;51.716;9.184;2023-06-14T03:36:30;23.20;52.30
45803;DHT22;31504;51.716;9.184;2023-06-14T03:39:31;23.20;52.30
45803;DHT22;31504;51.716;9.184;2023-06-14T03:42:31;23.20;52.30
45803;DHT22;31504;51.716;9.184;2023-06-14T03:45:31;23.20;52.50
45803;DHT22;31504;51.716;9.184;2023-06-14T03:48:32;23.20;52.40
45803;DHT22;31504;51.716;9.184;2023-06-14T03:51:32;23.20;52.50
45803;DHT22;31504;51.716;9.184;2023-06-14T03:54:35;23.20;52.30
45803;DHT22;31504;51.716;9.184;2023-06-14T03:57:35;23.20;52.50
45803;DHT22;31504;51.716;9.184;2023-06-14T04:00:36;23.20;52.20
45803;DHT22;31504;51.716;9.184;2023-06-14T04:03:36;23.20;52.50
45803;DHT22;31504;51.716;9.184;2023-06-14T04:06:37;23.20;52.50
45803;DHT22;31504;51.716;9.184;2023-06-14T04:09:37;23.20;52.50
45803;DHT22;31504;51.716;9.184;2023-06-14T04:12:38;23.20;52.50
45803;DHT22;31504;51.716;9.184;2023-06-14T04:15:39;23.20;52.50
45803;DHT22;31504;51.716;9.184;2023-06-14T04:18:42;23.20;52.60
45803;DHT22;31504;51.716;9.184;2023-06-14T04:21:42;23.20;52.50
45803;DHT22;31504;51.716;9.184;2023-06-14T04:24:43;23.20;52.50
45803;DHT22;31504;51.716;9.184;2023-06-14T04:27:45;23.20;52.50
45803;DHT22;31504;51.716;9.184;2023-06-14T04:30:47;23.20;52.60
45803;DHT22;31504;51.716;9.184;2023-06-14T04:33:47;23.20;52.50
45803;DHT22;31504;51.716;9.184;2023-06-14T04:36:50;23.20;52.50
45803;DHT22;31504;51.716;9.184;2023-06-14T04:39:54;23.20;52.60
45803;DHT22;31504;51.716;9.184;2023-06-14T04:42:56;23.20;52.50
45803;DHT22;31504;51.716;9.184;2023-06-14T04:45:57;23.20;52.20
45803;DHT22;31504;51.716;9.184;2023-06-14T04:48:58;23.20;52.40
45803;DHT22;31504;51.716;9.184;2023-06-14T04:52:02;23.20;52.50
45803;DHT22;31504;51.716;9.184;2023-06-14T04:55:03;23.20;52.50
45803;DHT22;31504;51.716;9.184;2023-06-14T04:58:03;23.20;52.50
45803;DHT22;31504;51.716;9.184;2023-06-14T05:01:05;23.20;52.50
45803;DHT22;31504;51.716;9.184;2023-06-14T05:04:05;23.20;52.60
45803;DHT22;31504;51.716;9.184;2023-06-14T05:07:06;23.20;52.60
45803;DHT22;31504;51.716;9.184;2023-06-14T05:10:07;23.20;52.50
45803;DHT22;31504;51.716;9.184;2023-06-14T05:13:08;23.20;52.50
45803;DHT22;31504;51.716;9.184;2023-06-14T05:16:08;23.20;52.50
45803;DHT22;31504;51.716;9.184;2023-06-14T05:19:09;23.20;52.50
45803;DHT22;31504;51.716;9.184;2023-06-14T05:22:10;23.20;52.40
45803;DHT22;31504;51.716;9.184;2023-06-14T05:25:11;23.20;52.40
45803;DHT22;31504;51.716;9.184;2023-06-14T05:28:11;23.20;52.50
45803;DHT22;31504;51.716;9.184;2023-06-14T05:31:11;23.20;52.50
45803;DHT22;31504;51.716;9.184;2023-06-14T05:34:12;23.20;52.50
45803;DHT22;31504;51.716;9.184;2023-06-14T05:37:12;23.20;52.40
45803;DHT22;31504;51.716;9.184;2023-06-14T05:40:13;23.20;52.40
45803;DHT22;31504;51.716;9.184;2023-06-14T05:43:14;23.20;52.40
45803;DHT22;31504;51.716;9.184;2023-06-14T05:46:14;23.20;52.40
45803;DHT22;31504;51.716;9.184;2023-06-14T05:49:15;23.20;52.40
45803;DHT22;31504;51.716;9.184;2023-06-14T05:52:15;23.20;52.50
45803;DHT22;31504;51.716;9.184;2023-06-14T05:55:16;23.20;52.50
45803;DHT22;31504;51.716;9.184;2023-06-14T05:58:16;23.20;52.40
45803;DHT22;31504;51.716;9.184;2023-06-14T06:01:17;23.20;52.50
45803;DHT22;31504;51.716;9.184;2023-06-14T06:04:17;23.20;52.50
45803;DHT22;31504;51.716;9.184;2023-06-14T06:07:18;23.20;52.50
45803;DHT22;31504;51.716;9.184;2023-06-14T06:10:18;23.20;52.50
45803;DHT22;31504;51.716;9.184;2023-06-14T06:13:19;23.20;52.50
45803;DHT22;31504;51.716;9.184;2023-06-14T06:16:19;23.20;52.50
45803;DHT22;31504;51.716;9.184;2023-06-14T06:19:20;23.20;52.50
45803;DHT22;31504;51.716;9.184;2023-06-14T06:22:20;23.20;52.50
45803;DHT22;31504;51.716;9.184;2023-06-14T06:25:21;23.20;52.50
45803;DHT22;31504;51.716;9.184;2023-06-14T06:28:22;23.20;52.60
45803;DHT22;31504;51.716;9.184;2023-06-14T06:31:22;23.20;52.50
45803;DHT22;31504;51.716;9.184;2023-06-14T06:34:23;23.20;52.50
45803;DHT22;31504;51.716;9.184;2023-06-14T06:37:23;23.20;52.60
45803;DHT22;31504;51.716;9.184;2023-06-14T06:40:24;23.20;51.90
45803;DHT22;31504;51.716;9.184;2023-06-14T06:43:24;23.20;51.10
45803;DHT22;31504;51.716;9.184;2023-06-14T06:46:25;23.30;48.90
45803;DHT22;31504;51.716;9.184;2023-06-14T06:49:25;23.40;48.80
45803;DHT22;31504;51.716;9.184;2023-06-14T06:52:26;23.40;48.10
45803;DHT22;31504;51.716;9.184;2023-06-14T06:55:26;23.40;48.40
45803;DHT22;31504;51.716;9.184;2023-06-14T06:58:26;23.40;47.60
45803;DHT22;31504;51.716;9.184;2023-06-14T07:01:27;23.40;48.30
45803;DHT22;31504;51.716;9.184;2023-06-14T07:04:29;23.40;46.80
45803;DHT22;31504;51.716;9.184;2023-06-14T07:07:29;23.40;47.00
45803;DHT22;31504;51.716;9.184;2023-06-14T07:10:30;23.40;47.00
45803;DHT22;31504;51.716;9.184;2023-06-14T07:13:31;23.30;46.90
45803;DHT22;31504;51.716;9.184;2023-06-14T07:16:32;23.30;46.30
45803;DHT22;31504;51.716;9.184;2023-06-14T07:19:32;23.40;47.00
45803;DHT22;31504;51.716;9.184;2023-06-14T07:22:33;23.40;46.80
45803;DHT22;31504;51.716;9.184;2023-06-14T07:25:33;23.40;46.70
45803;DHT22;31504;51.716;9.184;2023-06-14T07:28:34;23.30;46.80
45803;DHT22;31504;51.716;9.184;2023-06-14T07:31:35;23.40;47.60
45803;DHT22;31504;51.716;9.184;2023-06-14T07:34:35;23.30;48.40
45803;DHT22;31504;51.716;9.184;2023-06-14T07:37:35;23.40;47.00
45803;DHT22;31504;51.716;9.184;2023-06-14T07:40:36;23.40;46.70
45803;DHT22;31504;51.716;9.184;2023-06-14T07:43:36;23.40;46.60
45803;DHT22;31504;51.716;9.184;2023-06-14T07:46:37;23.40;46.80
45803;DHT22;31504;51.716;9.184;2023-06-14T07:49:38;23.30;46.80
45803;DHT22;31504;51.716;9.184;2023-06-14T07:52:38;23.30;47.00
45803;DHT22;31504;51.716;9.184;2023-06-14T07:55:39;23.30;46.80
45803;DHT22;31504;51.716;9.184;2023-06-14T07:58:40;23.30;46.20
45803;DHT22;31504;51.716;9.184;2023-06-14T08:04:43;23.30;46.00
45803;DHT22;31504;51.716;9.184;2023-06-14T08:07:43;23.20;45.40
45803;DHT22;31504;51.716;9.184;2023-06-14T08:10:44;23.20;45.50
45803;DHT22;31504;51.716;9.184;2023-06-14T08:13:45;23.20;45.40
45803;DHT22;31504;51.716;9.184;2023-06-14T08:16:45;23.20;45.30
45803;DHT22;31504;51.716;9.184;2023-06-14T08:19:46;23.20;46.00
45803;DHT22;31504;51.716;9.184;2023-06-14T08:22:47;23.20;45.90
45803;DHT22;31504;51.716;9.184;2023-06-14T08:25:48;23.10;45.90
45803;DHT22;31504;51.716;9.184;2023-06-14T08:28:48;23.10;45.70
45803;DHT22;31504;51.716;9.184;2023-06-14T08:31:49;23.10;45.80
45803;DHT22;31504;51.716;9.184;2023-06-14T08:34:50;23.10;45.70
45803;DHT22;31504;51.716;9.184;2023-06-14T08:37:50;23.10;45.60
45803;DHT22;31504;51.716;9.184;2023-06-14T08:40:51;23.10;45.70
45803;DHT22;31504;51.716;9.184;2023-06-14T08:43:52;23.00;45.40
45803;DHT22;31504;51.716;9.184;2023-06-14T08:46:54;23.00;45.60
45803;DHT22;31504;51.716;9.184;2023-06-14T08:49:55;22.90;45.40
45803;DHT22;31504;51.716;9.184;2023-06-14T08:52:58;22.80;45.40
45803;DHT22;31504;51.716;9.184;2023-06-14T08:56:03;22.80;45.40
45803;DHT22;31504;51.716;9.184;2023-06-14T08:59:05;22.80;45.50
45803;DHT22;31504;51.716;9.184;2023-06-14T09:02:06;22.80;45.70
45803;DHT22;31504;51.716;9.184;2023-06-14T09:05:07;22.80;45.50
45803;DHT22;31504;51.716;9.184;2023-06-14T09:08:08;22.80;45.60
45803;DHT22;31504;51.716;9.184;2023-06-14T09:11:11;22.90;45.70
45803;DHT22;31504;51.716;9.184;2023-06-14T09:14:12;22.90;45.80
45803;DHT22;31504;51.716;9.184;2023-06-14T09:17:13;22.90;45.80
45803;DHT22;31504;51.716;9.184;2023-06-14T09:20:13;23.00;45.80
45803;DHT22;31504;51.716;9.184;2023-06-14T09:23:20;23.00;45.70
45803;DHT22;31504;51.716;9.184;2023-06-14T09:26:21;23.00;45.70
45803;DHT22;31504;51.716;9.184;2023-06-14T09:29:23;23.00;45.70
45803;DHT22;31504;51.716;9.184;2023-06-14T09:32:24;23.00;45.60
45803;DHT22;31504;51.716;9.184;2023-06-14T09:35:25;23.00;45.60
45803;DHT22;31504;51.716;9.184;2023-06-14T09:38:25;23.00;45.50
45803;DHT22;31504;51.716;9.184;2023-06-14T09:41:36;23.00;45.50
45803;DHT22;31504;51.716;9.184;2023-06-14T09:44:37;23.00;45.50
45803;DHT22;31504;51.716;9.184;2023-06-14T09:47:38;23.00;45.60
45803;DHT22;31504;51.716;9.184;2023-06-14T09:50:39;23.00;45.60
45803;DHT22;31504;51.716;9.184;2023-06-14T09:53:39;23.00;45.60
45803;DHT22;31504;51.716;9.184;2023-06-14T09:56:41;23.00;45.60
45803;DHT22;31504;51.716;9.184;2023-06-14T09:59:44;23.00;45.40
45803;DHT22;31504;51.716;9.184;2023-06-14T10:02:46;23.00;45.40
45803;DHT22;31504;51.716;9.184;2023-06-14T10:05:50;23.00;45.90
45803;DHT22;31504;51.716;9.184;2023-06-14T10:08:56;23.00;45.40
45803;DHT22;31504;51.716;9.184;2023-06-14T10:11:57;23.00;45.60
45803;DHT22;31504;51.716;9.184;2023-06-14T10:14:57;23.00;45.40
45803;DHT22;31504;51.716;9.184;2023-06-14T10:18:04;23.00;45.50
45803;DHT22;31504;51.716;9.184;2023-06-14T10:21:26;23.00;45.50
45803;DHT22;31504;51.716;9.184;2023-06-14T10:27:32;23.00;45.50
45803;DHT22;31504;51.716;9.184;2023-06-14T10:30:32;23.00;45.60
45803;DHT22;31504;51.716;9.184;2023-06-14T10:33:33;23.00;45.80
45803;DHT22;31504;51.716;9.184;2023-06-14T10:36:34;23.10;45.70
45803;DHT22;31504;51.716;9.184;2023-06-14T10:39:39;23.10;45.60
45803;DHT22;31504;51.716;9.184;2023-06-14T10:42:41;23.10;45.50
45803;DHT22;31504;51.716;9.184;2023-06-14T10:49:10;23.10;45.50
45803;DHT22;31504;51.716;9.184;2023-06-14T10:52:14;23.10;45.40
45803;DHT22;31504;51.716;9.184;2023-06-14T10:55:19;23.10;45.40
45803;DHT22;31504;51.716;9.184;2023-06-14T10:58:21;23.10;45.80
45803;DHT22;31504;51.716;9.184;2023-06-14T11:04:49;23.10;45.70
45803;DHT22;31504;51.716;9.184;2023-06-14T11:11:05;23.10;46.20
45803;DHT22;31504;51.716;9.184;2023-06-14T11:14:06;23.10;46.30
45803;DHT22;31504;51.716;9.184;2023-06-14T11:17:06;23.10;46.20
45803;DHT22;31504;51.716;9.184;2023-06-14T11:20:10;23.10;46.20
45803;DHT22;31504;51.716;9.184;2023-06-14T11:23:11;23.10;46.10
45803;DHT22;31504;51.716;9.184;2023-06-14T11:26:11;23.10;46.20
45803;DHT22;31504;51.716;9.184;2023-06-14T11:29:12;23.10;46.20
45803;DHT22;31504;51.716;9.184;2023-06-14T11:32:14;23.10;46.00
45803;DHT22;31504;51.716;9.184;2023-06-14T11:35:15;23.10;46.10
45803;DHT22;31504;51.716;9.184;2023-06-14T11:38:15;23.10;45.80
45803;DHT22;31504;51.716;9.184;2023-06-14T11:41:16;23.10;45.90
45803;DHT22;31504;51.716;9.184;2023-06-14T11:44:16;23.20;45.90
45803;DHT22;31504;51.716;9.184;2023-06-14T11:47:17;23.20;45.70
45803;DHT22;31504;51.716;9.184;2023-06-14T11:50:17;23.20;45.70
45803;DHT22;31504;51.716;9.184;2023-06-14T11:53:18;23.20;45.90
45803;DHT22;31504;51.716;9.184;2023-06-14T11:56:19;23.20;45.70
45803;DHT22;31504;51.716;9.184;2023-06-14T11:59:20;23.20;45.70
45803;DHT22;31504;51.716;9.184;2023-06-14T12:02:21;23.20;45.70
45803;DHT22;31504;51.716;9.184;2023-06-14T12:05:22;23.20;45.80
45803;DHT22;31504;51.716;9.184;2023-06-14T12:08:22;23.20;45.80
45803;DHT22;31504;51.716;9.184;2023-06-14T12:11:34;23.20;45.60
45803;DHT22;31504;51.716;9.184;2023-06-14T12:14:35;23.20;45.70
45803;DHT22;31504;51.716;9.184;2023-06-14T12:17:36;23.20;45.70
45803;DHT22;31504;51.716;9.184;2023-06-14T12:20:36;23.20;45.40
45803;DHT22;31504;51.716;9.184;2023-06-14T12:23:45;23.20;45.40
45803;DHT22;31504;51.716;9.184;2023-06-14T12:26:46;23.20;45.50
45803;DHT22;31504;51.716;9.184;2023-06-14T12:29:47;23.20;46.10
45803;DHT22;31504;51.716;9.184;2023-06-14T12:32:58;23.30;45.50
45803;DHT22;31504;51.716;9.184;2023-06-14T12:35:59;23.30;45.60
45803;DHT22;31504;51.716;9.184;2023-06-14T12:38:59;23.30;45.70
45803;DHT22;31504;51.716;9.184;2023-06-14T12:42:00;23.30;46.30
45803;DHT22;31504;51.716;9.184;2023-06-14T12:45:00;23.30;46.60
45803;DHT22;31504;51.716;9.184;2023-06-14T12:48:03;23.30;45.50
45803;DHT22;31504;51.716;9.184;2023-06-14T12:51:09;23.30;45.20
45803;DHT22;31504;51.716;9.184;2023-06-14T12:54:09;23.30;45.10
45803;DHT22;31504;51.716;9.184;2023-06-14T12:57:10;23.30;45.00
45803;DHT22;31504;51.716;9.184;2023-06-14T13:00:10;23.30;45.10
45803;DHT22;31504;51.716;9.184;2023-06-14T13:03:13;23.30;45.00
45803;DHT22;31504;51.716;9.184;2023-06-14T13:06:13;23.30;45.00
45803;DHT22;31504;51.716;9.184;2023-06-14T13:09:14;23.30;45.20
45803;DHT22;31504;51.716;9.184;2023-06-14T13:12:15;23.30;45.10
45803;DHT22;31504;51.716;9.184;2023-06-14T13:15:16;23.30;45.10
45803;DHT22;31504;51.716;9.184;2023-06-14T13:18:16;23.30;45.00
45803;DHT22;31504;51.716;9.184;2023-06-14T13:21:17;23.20;44.70
45803;DHT22;31504;51.716;9.184;2023-06-14T13:24:17;23.20;44.90
45803;DHT22;31504;51.716;9.184;2023-06-14T13:27:18;23.20;44.50
45803;DHT22;31504;51.716;9.184;2023-06-14T13:30:18;23.20;44.50
45803;DHT22;31504;51.716;9.184;2023-06-14T13:33:19;23.20;44.70
45803;DHT22;31504;51.716;9.184;2023-06-14T13:36:19;23.20;45.60
45803;DHT22;31504;51.716;9.184;2023-06-14T13:39:20;23.20;44.80
45803;DHT22;31504;51.716;9.184;2023-06-14T13:42:22;23.20;45.00
45803;DHT22;31504;51.716;9.184;2023-06-14T13:45:23;23.20;45.00
45803;DHT22;31504;51.716;9.184;2023-06-14T13:48:24;23.20;45.00
45803;DHT22;31504;51.716;9.184;2023-06-14T13:51:24;23.30;45.20
45803;DHT22;31504;51.716;9.184;2023-06-14T13:54:26;23.20;45.20
45803;DHT22;31504;51.716;9.184;2023-06-14T13:57:27;23.20;44.90
45803;DHT22;31504;51.716;9.184;2023-06-14T14:00:27;23.30;45.00
45803;DHT22;31504;51.716;9.184;2023-06-14T14:03:28;23.30;44.90
45803;DHT22;31504;51.716;9.184;2023-06-14T14:06:28;23.20;45.00
45803;DHT22;31504;51.716;9.184;2023-06-14T14:09:29;23.20;45.00
45803;DHT22;31504;51.716;9.184;2023-06-14T14:12:29;23.20;45.10
45803;DHT22;31504;51.716;9.184;2023-06-14T14:15:30;23.20;45.20
45803;DHT22;31504;51.716;9.184;2023-06-14T14:18:30;23.20;45.10
45803;DHT22;31504;51.716;9.184;2023-06-14T14:21:31;23.20;45.10
45803;DHT22;31504;51.716;9.184;2023-06-14T14:24:31;23.20;45.00
45803;DHT22;31504;51.716;9.184;2023-06-14T14:27:32;23.20;45.10
45803;DHT22;31504;51.716;9.184;2023-06-14T14:30:32;23.30;45.10
45803;DHT22;31504;51.716;9.184;2023-06-14T14:33:33;23.30;45.10
45803;DHT22;31504;51.716;9.184;2023-06-14T14:36:35;23.30;45.10
45803;DHT22;31504;51.716;9.184;2023-06-14T14:39:37;23.30;45.20
45803;DHT22;31504;51.716;9.184;2023-06-14T14:42:38;23.30;45.80
45803;DHT22;31504;51.716;9.184;2023-06-14T14:45:39;23.30;45.10
45803;DHT22;31504;51.716;9.184;2023-06-14T14:48:39;23.30;45.10
45803;DHT22;31504;51.716;9.184;2023-06-14T14:51:40;23.30;45.20
45803;DHT22;31504;51.716;9.184;2023-06-14T14:54:40;23.30;45.20
45803;DHT22;31504;51.716;9.184;2023-06-14T14:57:41;23.30;45.10
45803;DHT22;31504;51.716;9.184;2023-06-14T15:00:41;23.30;45.00
45803;DHT22;31504;51.716;9.184;2023-06-14T15:03:42;23.30;44.90
45803;DHT22;31504;51.716;9.184;2023-06-14T15:06:42;23.30;45.00
45803;DHT22;31504;51.716;9.184;2023-06-14T15:09:42;23.30;45.00
45803;DHT22;31504;51.716;9.184;2023-06-14T15:12:43;23.30;45.20
45803;DHT22;31504;51.716;9.184;2023-06-14T15:15:43;23.30;44.90
45803;DHT22;31504;51.716;9.184;2023-06-14T15:18:44;23.30;45.00
45803;DHT22;31504;51.716;9.184;2023-06-14T15:21:44;23.30;45.00
45803;DHT22;31504;51.716;9.184;2023-06-14T15:24:45;23.30;45.00
45803;DHT22;31504;51.716;9.184;2023-06-14T15:27:46;23.30;45.10
45803;DHT22;31504;51.716;9.184;2023-06-14T15:30:46;23.30;45.20
45803;DHT22;31504;51.716;9.184;2023-06-14T15:33:46;23.30;45.40
45803;DHT22;31504;51.716;9.184;2023-06-14T15:36:47;23.30;45.50
45803;DHT22;31504;51.716;9.184;2023-06-14T15:39:47;23.30;45.50
45803;DHT22;31504;51.716;9.184;2023-06-14T15:42:48;23.30;45.50
45803;DHT22;31504;51.716;9.184;2023-06-14T15:45:48;23.30;45.70
45803;DHT22;31504;51.716;9.184;2023-06-14T15:48:49;23.30;45.80
45803;DHT22;31504;51.716;9.184;2023-06-14T15:51:49;23.30;45.80
45803;DHT22;31504;51.716;9.184;2023-06-14T15:54:50;23.30;45.60
45803;DHT22;31504;51.716;9.184;2023-06-14T15:57:50;23.30;45.60
45803;DHT22;31504;51.716;9.184;2023-06-14T16:00:51;23.30;45.70
45803;DHT22;31504;51.716;9.184;2023-06-14T16:03:51;23.30;45.70
45803;DHT22;31504;51.716;9.184;2023-06-14T16:06:52;23.30;45.70
45803;DHT22;31504;51.716;9.184;2023-06-14T16:09:52;23.30;45.80
45803;DHT22;31504;51.716;9.184;2023-06-14T16:12:53;23.30;45.70
45803;DHT22;31504;51.716;9.184;2023-06-14T16:15:53;23.30;45.70
45803;DHT22;31504;51.716;9.184;2023-06-14T16:18:54;23.30;45.50
45803;DHT22;31504;51.716;9.184;2023-06-14T16:21:55;23.40;45.60
45803;DHT22;31504;51.716;9.184;2023-06-14T16:24:55;23.30;45.80
45803;DHT22;31504;51.716;9.184;2023-06-14T16:27:56;23.30;45.80
45803;DHT22;31504;51.716;9.184;2023-06-14T16:30:57;23.30;46.60
45803;DHT22;31504;51.716;9.184;2023-06-14T16:33:57;23.30;45.90
45803;DHT22;31504;51.716;9.184;2023-06-14T16:36:58;23.30;46.10
45803;DHT22;31504;51.716;9.184;2023-06-14T16:39:58;23.30;46.10
45803;DHT22;31504;51.716;9.184;2023-06-14T16:42:59;23.30;46.20
45803;DHT22;31504;51.716;9.184;2023-06-14T16:45:59;23.30;46.40
45803;DHT22;31504;51.716;9.184;2023-06-14T16:49:00;23.30;46.50
45803;DHT22;31504;51.716;9.184;2023-06-14T16:52:01;23.30;46.30
45803;DHT22;31504;51.716;9.184;2023-06-14T16:55:01;23.30;46.30
45803;DHT22;31504;51.716;9.184;2023-06-14T16:58:01;23.30;46.30
45803;DHT22;31504;51.716;9.184;2023-06-14T17:01:02;23.30;46.40
45803;DHT22;31504;51.716;9.184;2023-06-14T17:04:02;23.30;46.40
45803;DHT22;31504;51.716;9.184;2023-06-14T17:07:03;23.30;46.40
45803;DHT22;31504;51.716;9.184;2023-06-14T17:10:04;23.30;46.40
45803;DHT22;31504;51.716;9.184;2023-06-14T17:13:05;23.30;46.30
45803;DHT22;31504;51.716;9.184;2023-06-14T17:16:05;23.30;46.40
45803;DHT22;31504;51.716;9.184;2023-06-14T17:19:06;23.30;46.30
45803;DHT22;31504;51.716;9.184;2023-06-14T17:22:07;23.30;46.30
45803;DHT22;31504;51.716;9.184;2023-06-14T17:25:07;23.30;46.30
45803;DHT22;31504;51.716;9.184;2023-06-14T17:28:08;23.30;46.50
45803;DHT22;31504;51.716;9.184;2023-06-14T17:31:08;23.30;46.40
45803;DHT22;31504;51.716;9.184;2023-06-14T17:34:09;23.30;46.50
45803;DHT22;31504;51.716;9.184;2023-06-14T17:37:09;23.30;46.60
45803;DHT22;31504;51.716;9.184;2023-06-14T17:40:10;23.30;46.70
45803;DHT22;31504;51.716;9.184;2023-06-14T17:43:10;23.30;47.00
45803;DHT22;31504;51.716;9.184;2023-06-14T17:46:11;23.20;46.70
45803;DHT22;31504;51.716;9.184;2023-06-14T17:49:12;23.30;46.80
45803;DHT22;31504;51.716;9.184;2023-06-14T17:52:12;23.30;46.70
45803;DHT22;31504;51.716;9.184;2023-06-14T17:55:13;23.20;46.40
45803;DHT22;31504;51.716;9.184;2023-06-14T17:58:14;23.20;46.40
45803;DHT22;31504;51.716;9.184;2023-06-14T18:01:14;23.20;46.50
45803;DHT22;31504;51.716;9.184;2023-06-14T18:04:16;23.20;46.70
45803;DHT22;31504;51.716;9.184;2023-06-14T18:07:17;23.30;46.70
45803;DHT22;31504;51.716;9.184;2023-06-14T18:10:17;23.20;46.70
45803;DHT22;31504;51.716;9.184;2023-06-14T18:13:19;23.20;46.80
45803;DHT22;31504;51.716;9.184;2023-06-14T18:16:19;23.20;46.90
45803;DHT22;31504;51.716;9.184;2023-06-14T18:19:20;23.20;46.70
45803;DHT22;31504;51.716;9.184;2023-06-14T18:22:20;23.20;46.50
45803;DHT22;31504;51.716;9.184;2023-06-14T18:25:21;23.20;46.50
45803;DHT22;31504;51.716;9.184;2023-06-14T18:28:23;23.20;46.00
45803;DHT22;31504;51.716;9.184;2023-06-14T18:31:23;23.20;45.90
45803;DHT22;31504;51.716;9.184;2023-06-14T18:34:24;23.20;46.00
45803;DHT22;31504;51.716;9.184;2023-06-14T18:37:24;23.20;45.90
45803;DHT22;31504;51.716;9.184;2023-06-14T18:40:25;23.20;46.00
45803;DHT22;31504;51.716;9.184;2023-06-14T18:43:25;23.20;46.00
45803;DHT22;31504;51.716;9.184;2023-06-14T18:46:26;23.20;46.00
45803;DHT22;31504;51.716;9.184;2023-06-14T18:49:28;23.20;46.00
45803;DHT22;31504;51.716;9.184;2023-06-14T18:52:29;23.20;46.10
45803;DHT22;31504;51.716;9.184;2023-06-14T18:55:29;23.20;46.20
45803;DHT22;31504;51.716;9.184;2023-06-14T18:58:29;23.10;46.20
45803;DHT22;31504;51.716;9.184;2023-06-14T19:01:30;23.10;46.20
45803;DHT22;31504;51.716;9.184;2023-06-14T19:04:31;23.10;46.30
45803;DHT22;31504;51.716;9.184;2023-06-14T19:07:31;23.10;46.30
45803;DHT22;31504;51.716;9.184;2023-06-14T19:10:32;23.10;46.40
45803;DHT22;31504;51.716;9.184;2023-06-14T19:13:32;23.10;46.40
45803;DHT22;31504;51.716;9.184;2023-06-14T19:16:33;23.20;46.40
45803;DHT22;31504;51.716;9.184;2023-06-14T19:19:33;23.20;46.40